»·PEaware :: FFT180 KBOI-KSEA

FFT180 :: KBOI-KSEA

FLIGHT INFORMATION

Flight Status: Arrived
Operator:
Frontier Airlines
More flights by this operator :: More flights under this callsign
Pilot: Etienne B. (28927)
Aircraft: AIRBUS A320
(A320)
More flights by this aircraft type
Origin: KBOI Boise Air Terminal/Gowen
United States
Destination: KSEA Seattle-Tacoma Intl
United States
More flights between these airports :: More routes between these airports
Route: +BOI3 OLAAH PREIS PDT CHINS4
File this flight plan on PilotEdge
Remarks: RMK / SIMBRIEF
Altitude:
(Current/Filed)
36,000ft
Speed:
(Current/Filed)
447kts
Departed: 14-Apr-20 05:50 PM
Arrived: 14-Apr-20 06:53 PM
Distance/Time
Traveled:
346nm/1:03
Distance/Time
To Go:
Arrived

Flight Plot

Page will automatically refresh every two minutes.


Map Options




Map Legend


Flown Route
Filed Route
Departure Airport
Arrival Airport
Navaid (VOR, NDB)
Fix

Horizontal Profiles

Position Reports

Time Latitude Longitude Heading Altitude Ground
Speed
14-Apr-20 17:31 43.567254 -116.220697 22 2853ft 0kts
14-Apr-20 17:32 43.567254 -116.220697 22 2853ft 0kts
14-Apr-20 17:33 43.567254 -116.220697 22 2853ft 0kts
14-Apr-20 17:34 43.567254 -116.220697 22 2853ft 0kts
14-Apr-20 17:35 43.567254 -116.220697 22 2853ft 0kts
14-Apr-20 17:36 43.567254 -116.220697 22 2853ft 0kts
14-Apr-20 17:37 43.567254 -116.220697 22 2853ft 0kts
14-Apr-20 17:38 43.567254 -116.220697 22 2853ft 0kts
14-Apr-20 17:39 43.567254 -116.220697 22 2853ft 0kts
14-Apr-20 17:40 43.567053 -116.220808 25 2853ft 2kts
14-Apr-20 17:41 43.566852 -116.221508 110 2853ft 1kts
14-Apr-20 17:42 43.566887 -116.221614 115 2853ft 0kts
14-Apr-20 17:43 43.566610 -116.220768 113 2854ft 10kts
14-Apr-20 17:44 43.565609 -116.217762 116 2856ft 5kts
14-Apr-20 17:45 43.563701 -116.214242 115 2862ft 14kts
14-Apr-20 17:46 43.561783 -116.208628 115 2866ft 23kts
14-Apr-20 17:47 43.559560 -116.202515 159 2873ft 0kts
14-Apr-20 17:48 43.558754 -116.203290 277 2871ft 0kts
14-Apr-20 17:49 43.567642 -116.229597 297 3149ft 169kts
14-Apr-20 17:50 43.587753 -116.291732 294 5933ft 189kts
14-Apr-20 17:51 43.620009 -116.353940 331 8726ft 217kts
14-Apr-20 17:52 43.677783 -116.391795 329 11307ft 252kts
14-Apr-20 17:53 43.748313 -116.444966 330 12637ft 324kts
14-Apr-20 17:54 43.834774 -116.508066 331 13621ft 376kts
14-Apr-20 17:55 43.928760 -116.576398 331 15547ft 385kts
14-Apr-20 17:56 44.024219 -116.645925 331 17326ft 391kts
14-Apr-20 17:57 44.120319 -116.718140 326 18941ft 396kts
14-Apr-20 17:58 44.206367 -116.814252 316 20410ft 402kts
14-Apr-20 17:59 44.286453 -116.924204 316 21701ft 408kts
14-Apr-20 18:00 44.368117 -117.036697 317 22742ft 418kts
14-Apr-20 18:01 44.451663 -117.152290 317 23693ft 427kts
14-Apr-20 18:02 44.536227 -117.269821 317 24683ft 432kts
14-Apr-20 18:03 44.621802 -117.389253 318 25549ft 436kts
14-Apr-20 18:04 44.707759 -117.509770 318 26424ft 437kts
14-Apr-20 18:05 44.793355 -117.630329 318 27421ft 434kts
14-Apr-20 18:06 44.878050 -117.750124 318 28434ft 431kts
14-Apr-20 18:07 44.962055 -117.869454 318 29439ft 427kts
14-Apr-20 18:08 45.044277 -117.986831 318 30815ft 413kts
14-Apr-20 18:09 45.123460 -118.100323 318 32219ft 398kts
14-Apr-20 18:10 45.200359 -118.210916 319 33168ft 394kts
14-Apr-20 18:11 45.276736 -118.321243 319 33991ft 391kts
14-Apr-20 18:12 45.352657 -118.431389 319 34685ft 389kts
14-Apr-20 18:13 45.427634 -118.540556 319 35320ft 388kts
14-Apr-20 18:14 45.502287 -118.649731 319 35867ft 386kts
14-Apr-20 18:15 45.576005 -118.757448 318 36175ft 386kts
14-Apr-20 18:16 45.650497 -118.867627 318 36176ft 388kts
14-Apr-20 18:17 45.724296 -118.982139 314 36178ft 398kts
14-Apr-20 18:18 45.796448 -119.103939 314 36183ft 403kts
14-Apr-20 18:19 45.868804 -119.226631 314 36160ft 401kts
14-Apr-20 18:20 45.940417 -119.348546 314 36155ft 401kts
14-Apr-20 18:21 46.012248 -119.471370 314 36137ft 401kts
14-Apr-20 18:22 46.083653 -119.594015 314 36119ft 401kts
14-Apr-20 18:23 46.154954 -119.717010 313 36128ft 402kts
14-Apr-20 18:24 46.226633 -119.841227 313 36142ft 403kts
14-Apr-20 18:25 46.297919 -119.965327 313 36142ft 402kts
14-Apr-20 18:26 46.369196 -120.089992 313 35621ft 400kts
14-Apr-20 18:27 46.440243 -120.214769 313 34653ft 404kts
14-Apr-20 18:29 46.511444 -120.340411 313 33699ft 405kts
14-Apr-20 18:30 46.581985 -120.468968 309 32738ft 411kts
14-Apr-20 18:31 46.647376 -120.605849 309 31775ft 415kts
14-Apr-20 18:32 46.712404 -120.742576 308 30824ft 418kts
14-Apr-20 18:33 46.778828 -120.882662 307 29866ft 421kts
14-Apr-20 18:34 46.845289 -121.023896 307 28874ft 423kts
14-Apr-20 18:35 46.911163 -121.164541 306 26014ft 423kts
14-Apr-20 18:36 46.976835 -121.305473 306 23421ft 411kts
14-Apr-20 18:37 47.039588 -121.440852 306 21272ft 390kts
14-Apr-20 18:38 47.099752 -121.571135 306 19048ft 381kts
14-Apr-20 18:39 47.158081 -121.698069 305 16808ft 372kts
14-Apr-20 18:40 47.215158 -121.822851 305 14548ft 363kts
14-Apr-20 18:41 47.269733 -121.942762 305 13103ft 332kts
14-Apr-20 18:42 47.317328 -122.047872 305 12235ft 284kts
14-Apr-20 18:43 47.359018 -122.140069 305 10511ft 268kts
14-Apr-20 18:44 47.425398 -122.170903 0 8757ft 268kts
14-Apr-20 18:45 47.498396 -122.167756 0 6998ft 252kts
14-Apr-20 18:46 47.565893 -122.165857 0 5250ft 236kts
14-Apr-20 18:47 47.630291 -122.166524 340 3479ft 226kts
14-Apr-20 18:47 47.637791 -122.232129 254 3197ft 219kts
14-Apr-20 18:49 47.596873 -122.304695 199 3244ft 208kts
14-Apr-20 18:50 47.539971 -122.307313 181 2001ft 204kts
14-Apr-20 18:50 47.498832 -122.307260 181 1110ft 150kts
14-Apr-20 18:51 47.460516 -122.307756 181 433ft 135kts
14-Apr-20 18:53 47.449959 -122.306509 128 410ft 12kts
14-Apr-20 18:53 47.447702 -122.305898 88 402ft 4kts
14-Apr-20 18:54 47.447417 -122.303664 127 399ft 7kts
14-Apr-20 18:55 47.447659 -122.302309 39 398ft 0kts

Navigation Log

Ident Type
Flight plan parsing failed, navigation log unavailable